Time;durP1;ratioP1;P1;durP2;ratioP2;P2;SDS_P1;SDS_P2;PMS_P1;PMS_P2;Temp;Humidity;BMP_temperature;BMP_pressure;BME280_temperature;BME280_humidity;BME280_pressure;Samples;Min_cycle;Max_cycle;Signal;HPM_P1;HPM_P2
2021/12/16 00:01:45;;;;;;;;;;;;;;;-142.21;100.00;66915.31;5034648;28;1223;-90
2021/12/16 00:08:49;;;;;;;;;;;;;;;-142.21;100.00;66915.31;5054438;28;859;-89
2021/12/16 00:31:04;;;;;;;;;;;;;;;-142.21;100.00;66915.31;5045439;28;1260;-89
2021/12/16 00:33:42;;;;;;;;;;;;;;;-142.21;100.00;66915.31;5053731;28;1025;-89
2021/12/16 00:36:08;;;;;;;;;;;;;;;-142.21;100.00;66915.31;5052363;28;1432;-89
2021/12/16 00:38:34;;;;;;;;;;;;;;;-142.21;100.00;66915.31;5052596;28;1949;-89
2021/12/16 00:41:00;;;;;;;;;;;;;;;-142.21;100.00;66915.31;5052254;28;1382;-90
2021/12/16 00:43:34;;;;;;;;;;;;;;;-142.21;100.00;66915.31;5052582;28;1277;-89
2021/12/16 00:49:02;;;;;;;;;;;;;;;-142.21;100.00;66915.31;5054028;28;836;-89
2021/12/16 00:54:13;;;;;;;;;;;;;;;-142.21;100.00;66915.31;5054771;28;620;-90
2021/12/16 00:56:39;;;;;;;;;;;;;;;-142.21;100.00;66915.31;5052751;28;1350;-90
2021/12/16 00:59:08;;;;;;;;;;;;;;;-142.21;100.00;66915.31;5052367;28;1957;-89
2021/12/16 01:34:08;;;;;;;;;;;;;;;-142.21;100.00;66915.31;5057549;28;667;-90
2021/12/16 01:36:50;;;;;;;;;;;;;;;-142.21;100.00;66915.31;5055728;28;1309;-89
2021/12/16 01:50:11;;;;;;;;;;;;;;;-142.21;100.00;66915.31;5045185;28;1239;-89
2021/12/16 01:53:05;;;;;;;;;;;;;;;-142.21;100.00;66915.31;5055420;28;1211;-89
2021/12/16 01:55:39;;;;;;;;;;;;;;;-142.21;100.00;66915.31;5056395;28;1276;-89
2021/12/16 01:58:39;;;;;;;;;;;;;;;-142.21;100.00;66915.31;5055635;28;1234;-89
2021/12/16 02:03:41;;;;;;;;;;;;;;;-142.21;100.00;66915.31;5056742;28;856;-89
2021/12/16 02:06:24;;;;;;;;;;;;;;;-142.21;100.00;66915.31;5055094;28;1329;-89
2021/12/16 02:08:51;;;;;;;;;;;;;;;-142.21;100.00;66915.31;5055002;28;1385;-90
2021/12/16 02:11:26;;;;;;;;;;;;;;;-142.21;100.00;66915.31;5054969;28;1356;-89
2021/12/16 02:27:47;;;;;;;;;;;;;;;-142.21;100.00;66915.31;5055207;28;667;-89
2021/12/16 02:35:41;;;;;;;;;;;;;;;-142.21;100.00;66915.31;5055707;28;1272;-88
2021/12/16 02:38:07;;;;;;;;;;;;;;;-142.21;100.00;66915.31;5054707;28;1310;-88
2021/12/16 02:40:33;;;;;;;;;;;;;;;-142.21;100.00;66915.31;5054309;28;1897;-88
2021/12/16 02:43:08;;;;;;;;;;;;;;;-142.21;100.00;66915.31;5054492;28;1207;-88
2021/12/16 02:48:40;;;;;;;;;;;;;;;-142.21;100.00;66915.31;5055828;28;620;-89
2021/12/16 02:51:13;;;;;;;;;;;;;;;-142.21;100.00;66915.31;5054350;28;1258;-90
2021/12/16 02:53:40;;;;;;;;;;;;;;;-142.21;100.00;66915.31;5054219;28;1314;-90
2021/12/16 02:56:06;;;;;;;;;;;;;;;-142.21;100.00;66915.31;5055650;28;1189;-89
2021/12/16 02:58:32;;;;;;;;;;;;;;;-142.21;100.00;66915.31;5055326;28;1003;-89
2021/12/16 03:01:02;;;;;;;;;;;;;;;-142.21;100.00;66915.31;5054429;28;1961;-89
2021/12/16 03:03:28;;;;;;;;;;;;;;;-142.21;100.00;66915.31;5054328;28;1313;-90
2021/12/16 03:05:54;;;;;;;;;;;;;;;-142.21;100.00;66915.31;5053913;28;1195;-89
2021/12/16 03:08:19;;;;;;;;;;;;;;;-142.21;100.00;66915.31;5053993;28;1341;-89
2021/12/16 03:11:06;;;;;;;;;;;;;;;-142.21;100.00;66915.31;5053856;28;1424;-89
2021/12/16 03:13:43;;;;;;;;;;;;;;;-142.21;100.00;66915.31;5055103;28;840;-90
2021/12/16 03:16:29;;;;;;;;;;;;;;;-142.21;100.00;66915.31;5053808;28;1274;-89
2021/12/16 03:19:13;;;;;;;;;;;;;;;-142.21;100.00;66915.31;5053965;28;1906;-89
2021/12/16 03:21:46;;;;;;;;;;;;;;;-142.21;100.00;66915.31;5053675;28;1314;-90
2021/12/16 03:30:22;;;;;;;;;;;;;;;-142.21;100.00;66915.31;5032614;28;1363;-90
2021/12/16 03:35:28;;;;;;;;;;;;;;;-142.21;100.00;66915.31;5054911;28;1240;-89
2021/12/16 03:37:55;;;;;;;;;;;;;;;-142.21;100.00;66915.31;5053368;28;1329;-90
2021/12/16 03:40:21;;;;;;;;;;;;;;;-142.21;100.00;66915.31;5053294;28;1901;-89
2021/12/16 03:42:49;;;;;;;;;;;;;;;-142.21;100.00;66915.31;5054303;28;1135;-89
2021/12/16 03:48:12;;;;;;;;;;;;;;;-142.21;100.00;66915.31;5065504;28;619;-90
2021/12/16 03:50:37;;;;;;;;;;;;;;;-142.21;100.00;66915.31;5078101;28;1267;-90
2021/12/16 03:53:04;;;;;;;;;;;;;;;-142.21;100.00;66915.31;5076776;28;1167;-89
2021/12/16 03:55:29;;;;;;;;;;;;;;;-142.21;100.00;66915.31;5063089;28;1282;-88
2021/12/16 03:57:54;;;;;;;;;;;;;;;-142.21;100.00;66915.31;5053393;28;1219;-89
2021/12/16 04:00:22;;;;;;;;;;;;;;;-142.21;100.00;66915.31;5052994;28;1886;-89
2021/12/16 04:02:47;;;;;;;;;;;;;;;-142.21;100.00;66915.31;5054279;28;1039;-88
2021/12/16 04:05:13;;;;;;;;;;;;;;;-142.21;100.00;66915.31;5053076;28;1324;-89
2021/12/16 04:07:39;;;;;;;;;;;;;;;-142.21;100.00;66915.31;5053002;28;1177;-90
2021/12/16 04:10:07;;;;;;;;;;;;;;;-142.21;100.00;66915.31;5052943;28;1266;-89
2021/12/16 04:12:32;;;;;;;;;;;;;;;-142.21;100.00;66915.31;5052742;28;1171;-89
2021/12/16 04:14:58;;;;;;;;;;;;;;;-142.21;100.00;66915.31;5053133;28;1412;-89
2021/12/16 04:17:25;;;;;;;;;;;;;;;-142.21;100.00;66915.31;5052791;28;1290;-89
2021/12/16 04:19:51;;;;;;;;;;;;;;;-142.21;100.00;66915.31;5053790;28;1918;-89
2021/12/16 04:22:20;;;;;;;;;;;;;;;-142.21;100.00;66915.31;5052564;28;1195;-89
2021/12/16 04:24:47;;;;;;;;;;;;;;;-142.21;100.00;66915.31;5052534;28;1219;-89
2021/12/16 04:27:13;;;;;;;;;;;;;;;-142.21;100.00;66915.31;5052722;28;1301;-89
2021/12/16 04:29:38;;;;;;;;;;;;;;;-142.21;100.00;66915.31;5052585;28;1262;-90
2021/12/16 04:35:12;;;;;;;;;;;;;;;-142.21;100.00;66915.31;5053721;28;1260;-88
2021/12/16 04:37:38;;;;;;;;;;;;;;;-142.21;100.00;66915.31;5052917;28;1218;-89
2021/12/16 04:40:06;;;;;;;;;;;;;;;-142.21;100.00;66915.31;5052344;28;1909;-89
2021/12/16 04:42:32;;;;;;;;;;;;;;;-142.21;100.00;66915.31;5052529;28;1195;-89
2021/12/16 04:44:57;;;;;;;;;;;;;;;-142.21;100.00;66915.31;5052510;28;1367;-90
2021/12/16 04:47:22;;;;;;;;;;;;;;;-142.21;100.00;66915.31;5052394;28;1286;-89
2021/12/16 04:49:47;;;;;;;;;;;;;;;-142.21;100.00;66915.31;5052380;28;1219;-89
2021/12/16 04:52:15;;;;;;;;;;;;;;;-142.21;100.00;66915.31;5055009;28;1183;-89
2021/12/16 04:54:41;;;;;;;;;;;;;;;-142.21;100.00;66915.31;5056568;28;1561;-89
2021/12/16 04:57:06;;;;;;;;;;;;;;;-142.21;100.00;66915.31;5056145;28;1291;-89
2021/12/16 04:59:33;;;;;;;;;;;;;;;-142.21;100.00;66915.31;5056273;28;1898;-89
2021/12/16 05:02:05;;;;;;;;;;;;;;;-142.21;100.00;66915.31;5056781;28;1203;-89
2021/12/16 05:04:30;;;;;;;;;;;;;;;-142.21;100.00;66915.31;5056723;28;1198;-90
2021/12/16 05:06:56;;;;;;;;;;;;;;;-142.21;100.00;66915.31;5056279;28;1191;-89
2021/12/16 05:09:58;;;;;;;;;;;;;;;-142.21;100.00;66915.31;5056232;28;1255;-89
2021/12/16 05:12:08;;;;;;;;;;;;;;;-142.21;100.00;66915.31;5057302;28;1035;-88
2021/12/16 05:14:33;;;;;;;;;;;;;;;-142.21;100.00;66915.31;5055961;28;1310;-88
2021/12/16 05:16:59;;;;;;;;;;;;;;;-142.21;100.00;66915.31;5055784;28;1391;-89
2021/12/16 05:19:24;;;;;;;;;;;;;;;-142.21;100.00;66915.31;5056054;28;1914;-89
2021/12/16 05:24:14;;;;;;;;;;;;;;;-142.21;100.00;66915.31;5055817;28;1526;-89
2021/12/16 05:24:44;;;;;;;;;;;;;;;-142.21;100.00;66915.31;5056934;28;1186;-89
2021/12/16 05:27:12;;;;;;;;;;;;;;;-142.21;100.00;66915.31;5055824;28;1487;-88
2021/12/16 05:29:41;;;;;;;;;;;;;;;-142.21;100.00;66915.31;5055866;28;1191;-89
2021/12/16 05:32:06;;;;;;;;;;;;;;;-142.21;100.00;66915.31;5056311;28;1378;-89
2021/12/16 05:34:31;;;;;;;;;;;;;;;-142.21;100.00;66915.31;5055732;28;1183;-89
2021/12/16 05:36:56;;;;;;;;;;;;;;;-142.21;100.00;66915.31;5055920;28;1229;-88
2021/12/16 05:39:23;;;;;;;;;;;;;;;-142.21;100.00;66915.31;5056823;28;1949;-88
2021/12/16 05:41:49;;;;;;;;;;;;;;;-142.21;100.00;66915.31;5055682;28;1263;-88
2021/12/16 05:44:14;;;;;;;;;;;;;;;-142.21;100.00;66915.31;5055556;28;1323;-88
2021/12/16 05:46:40;;;;;;;;;;;;;;;-142.21;100.00;66915.31;5055390;28;1275;-87
2021/12/16 05:49:07;;;;;;;;;;;;;;;-142.21;100.00;66915.31;5055575;28;1332;-88
2021/12/16 05:51:33;;;;;;;;;;;;;;;-142.21;100.00;66915.31;5055571;28;1211;-88
2021/12/16 05:54:00;;;;;;;;;;;;;;;-142.21;100.00;66915.31;5055648;28;1199;-88
2021/12/16 05:56:25;;;;;;;;;;;;;;;-142.21;100.00;66915.31;5056689;28;1264;-88
2021/12/16 05:58:50;;;;;;;;;;;;;;;-142.21;100.00;66915.31;5055712;28;1893;-88
2021/12/16 06:01:24;;;;;;;;;;;;;;;-142.21;100.00;66915.31;5055085;28;1224;-88
2021/12/16 06:03:51;;;;;;;;;;;;;;;-142.21;100.00;66915.31;5054833;28;1278;-89
2021/12/16 06:06:17;;;;;;;;;;;;;;;-142.21;100.00;66915.31;5086819;23;1952;-85
2021/12/16 06:08:42;;;;;;;;;;;;;;;-142.21;100.00;66915.31;5033032;28;1508;-86
2021/12/16 06:11:18;;;;;;;;;;;;;;;-142.21;100.00;66915.31;5028267;28;1456;-85
2021/12/16 06:13:49;;;;;;;;;;;;;;;-142.21;100.00;66915.31;5028848;28;1516;-85
2021/12/16 06:27:21;;;;;;;;;;;;;;;-142.21;100.00;66915.31;5010003;28;1349;-87
2021/12/16 06:29:47;;;;;;;;;;;;;;;-142.21;100.00;66915.31;5020035;28;866;-87
2021/12/16 06:32:13;;;;;;;;;;;;;;;-142.21;100.00;66915.31;5019847;28;1432;-87
2021/12/16 06:34:38;;;;;;;;;;;;;;;-142.21;100.00;66915.31;5019414;28;1236;-87
2021/12/16 06:37:03;;;;;;;;;;;;;;;-142.21;100.00;66915.31;5020681;28;1409;-87
2021/12/16 06:39:29;;;;;;;;;;;;;;;-142.21;100.00;66915.31;5020244;28;1902;-86
2021/12/16 06:41:54;;;;;;;;;;;;;;;-142.21;100.00;66915.31;5022451;28;1496;-86
2021/12/16 06:44:27;;;;;;;;;;;;;;;-142.21;100.00;66915.31;5023472;28;1038;-86
2021/12/16 06:46:58;;;;;;;;;;;;;;;-142.21;100.00;66915.31;5021844;28;1531;-87
2021/12/16 06:49:24;;;;;;;;;;;;;;;-142.21;100.00;66915.31;5023789;28;1494;-86
2021/12/16 06:51:54;;;;;;;;;;;;;;;-142.21;100.00;66915.31;5021997;28;1428;-85
2021/12/16 06:54:29;;;;;;;;;;;;;;;-142.21;100.00;66915.31;5022993;28;1475;-87
2021/12/16 06:59:33;;;;;;;;;;;;;;;-142.21;100.00;66915.31;5022452;28;1942;-87
2021/12/16 07:02:08;;;;;;;;;;;;;;;-142.21;100.00;66915.31;5021237;28;1487;-87
2021/12/16 07:04:34;;;;;;;;;;;;;;;-142.21;100.00;66915.31;5019648;28;1523;-87
2021/12/16 07:07:00;;;;;;;;;;;;;;;-142.21;100.00;66915.31;5019737;28;1562;-87
2021/12/16 07:09:25;;;;;;;;;;;;;;;-142.21;100.00;66915.31;5021653;28;1564;-87
2021/12/16 07:11:52;;;;;;;;;;;;;;;-142.21;100.00;66915.31;5020693;28;1476;-87
2021/12/16 07:14:19;;;;;;;;;;;;;;;-142.21;100.00;66915.31;5023841;28;1340;-85
2021/12/16 07:16:46;;;;;;;;;;;;;;;-142.21;100.00;66915.31;5039591;28;1332;-86
2021/12/16 07:19:11;;;;;;;;;;;;;;;-142.21;100.00;66915.31;5020291;28;1961;-86
2021/12/16 07:21:38;;;;;;;;;;;;;;;-142.21;100.00;66915.31;5019134;28;1046;-86
2021/12/16 07:24:07;;;;;;;;;;;;;;;-142.21;100.00;66915.31;5017956;28;1185;-86
2021/12/16 07:26:32;;;;;;;;;;;;;;;-142.21;100.00;66915.31;5020793;28;1538;-86
2021/12/16 07:28:58;;;;;;;;;;;;;;;-142.21;100.00;66915.31;5034305;28;1455;-86
2021/12/16 07:31:23;;;;;;;;;;;;;;;-142.21;100.00;66915.31;5018871;28;1287;-85
2021/12/16 07:33:48;;;;;;;;;;;;;;;-142.21;100.00;66915.31;5019319;28;1279;-86
2021/12/16 07:36:18;;;;;;;;;;;;;;;-142.21;100.00;66915.31;5018499;28;1542;-86
2021/12/16 07:38:43;;;;;;;;;;;;;;;-142.21;100.00;66915.31;5017809;28;1310;-86
2021/12/16 07:41:09;;;;;;;;;;;;;;;-142.21;100.00;66915.31;5020633;28;1870;-85
2021/12/16 07:43:57;;;;;;;;;;;;;;;-142.21;100.00;66915.31;5016432;28;1176;-87
2021/12/16 07:46:22;;;;;;;;;;;;;;;-142.21;100.00;66915.31;5016377;28;1205;-86
2021/12/16 07:48:47;;;;;;;;;;;;;;;-142.21;100.00;66915.31;5015340;28;1530;-86
2021/12/16 07:51:13;;;;;;;;;;;;;;;-142.21;100.00;66915.31;5015775;28;1515;-86
2021/12/16 07:53:38;;;;;;;;;;;;;;;-142.21;100.00;66915.31;5018239;28;1491;-85
2021/12/16 07:56:05;;;;;;;;;;;;;;;-142.21;100.00;66915.31;5017773;28;1499;-86
2021/12/16 07:58:30;;;;;;;;;;;;;;;-142.21;100.00;66915.31;5016643;28;1467;-86
2021/12/16 08:00:56;;;;;;;;;;;;;;;-142.21;100.00;66915.31;5013427;28;1979;-85
2021/12/16 08:03:21;;;;;;;;;;;;;;;-142.21;100.00;66915.31;5003874;28;1357;-86
2021/12/16 08:05:53;;;;;;;;;;;;;;;-142.21;100.00;66915.31;5006273;28;1488;-86
2021/12/16 08:08:18;;;;;;;;;;;;;;;-142.21;100.00;66915.31;5017484;28;1534;-86
2021/12/16 08:10:43;;;;;;;;;;;;;;;-142.21;100.00;66915.31;5016038;28;1557;-86
2021/12/16 08:13:09;;;;;;;;;;;;;;;-142.21;100.00;66915.31;5016549;28;1440;-85
2021/12/16 08:15:34;;;;;;;;;;;;;;;-142.21;100.00;66915.31;5015512;28;1355;-85
2021/12/16 08:17:59;;;;;;;;;;;;;;;-142.21;100.00;66915.31;5016065;28;1204;-85
2021/12/16 08:20:25;;;;;;;;;;;;;;;-142.21;100.00;66915.31;5015610;28;1930;-86
2021/12/16 08:22:51;;;;;;;;;;;;;;;-142.21;100.00;66915.31;5016583;28;1183;-86
2021/12/16 08:25:18;;;;;;;;;;;;;;;-142.21;100.00;66915.31;5013849;28;1307;-85
2021/12/16 08:27:45;;;;;;;;;;;;;;;-142.21;100.00;66915.31;5015484;28;1380;-85
2021/12/16 08:30:12;;;;;;;;;;;;;;;-142.21;100.00;66915.31;5015696;28;1490;-86
2021/12/16 08:32:38;;;;;;;;;;;;;;;-142.21;100.00;66915.31;5017420;28;1057;-86
2021/12/16 08:35:04;;;;;;;;;;;;;;;-142.21;100.00;66915.31;5016415;28;1225;-86
2021/12/16 08:37:29;;;;;;;;;;;;;;;-142.21;100.00;66915.31;5016134;28;1212;-86
2021/12/16 08:39:55;;;;;;;;;;;;;;;-142.21;100.00;66915.31;5017039;28;1951;-86
2021/12/16 08:42:20;;;;;;;;;;;;;;;-142.21;100.00;66915.31;5015861;28;1259;-86
2021/12/16 08:44:45;;;;;;;;;;;;;;;-142.21;100.00;66915.31;5015467;28;1377;-86
2021/12/16 08:47:13;;;;;;;;;;;;;;;-142.21;100.00;66915.31;5016011;28;1220;-86
2021/12/16 08:49:39;;;;;;;;;;;;;;;-142.21;100.00;66915.31;5015933;28;1327;-86
2021/12/16 08:52:07;;;;;;;;;;;;;;;-142.21;100.00;66915.31;5017531;28;1003;-86
2021/12/16 08:54:32;;;;;;;;;;;;;;;-142.21;100.00;66915.31;5016464;28;1184;-86
2021/12/16 08:56:57;;;;;;;;;;;;;;;-142.21;100.00;66915.31;5015845;28;1228;-86
2021/12/16 08:59:24;;;;;;;;;;;;;;;-142.21;100.00;66915.31;5016389;28;1890;-86
2021/12/16 09:01:50;;;;;;;;;;;;;;;-142.21;100.00;66915.31;5015541;28;1188;-86
2021/12/16 09:04:19;;;;;;;;;;;;;;;-142.21;100.00;66915.31;5015662;28;1176;-86
2021/12/16 09:06:44;;;;;;;;;;;;;;;-142.21;100.00;66915.31;5015954;28;1218;-86
2021/12/16 09:09:09;;;;;;;;;;;;;;;-142.21;100.00;66915.31;5015724;28;1329;-86
2021/12/16 09:11:40;;;;;;;;;;;;;;;-142.21;100.00;66915.31;5015633;28;1346;-86
2021/12/16 09:14:06;;;;;;;;;;;;;;;-142.21;100.00;66915.31;5016112;28;1224;-86
2021/12/16 09:16:32;;;;;;;;;;;;;;;-142.21;100.00;66915.31;5015988;28;1286;-86
2021/12/16 09:18:58;;;;;;;;;;;;;;;-142.21;100.00;66915.31;5015668;28;1882;-86
2021/12/16 09:21:25;;;;;;;;;;;;;;;-142.21;100.00;66915.31;5017883;28;976;-86
2021/12/16 09:23:52;;;;;;;;;;;;;;;-142.21;100.00;66915.31;5016224;28;1255;-86
2021/12/16 09:26:17;;;;;;;;;;;;;;;-142.21;100.00;66915.31;5015981;28;1413;-86
2021/12/16 09:28:43;;;;;;;;;;;;;;;-142.21;100.00;66915.31;5015295;28;1184;-86
2021/12/16 09:31:11;;;;;;;;;;;;;;;-142.21;100.00;66915.31;5015932;28;1306;-86
2021/12/16 09:33:41;;;;;;;;;;;;;;;-142.21;100.00;66915.31;5015240;28;1268;-86
2021/12/16 09:36:06;;;;;;;;;;;;;;;-142.21;100.00;66915.31;5015313;28;1264;-86
2021/12/16 09:38:31;;;;;;;;;;;;;;;-142.21;100.00;66915.31;5017749;28;1381;-86
2021/12/16 09:40:57;;;;;;;;;;;;;;;-142.21;100.00;66915.31;5018616;28;1894;-86
2021/12/16 09:43:24;;;;;;;;;;;;;;;-142.21;100.00;66915.31;5019559;28;1254;-86
2021/12/16 09:45:50;;;;;;;;;;;;;;;-142.21;100.00;66915.31;5020111;28;1205;-86
2021/12/16 09:48:16;;;;;;;;;;;;;;;-142.21;100.00;66915.31;5018828;28;1193;-86
2021/12/16 09:50:41;;;;;;;;;;;;;;;-142.21;100.00;66915.31;5019061;28;1163;-86
2021/12/16 09:53:07;;;;;;;;;;;;;;;-142.21;100.00;66915.31;5019215;28;1200;-86
2021/12/16 09:55:34;;;;;;;;;;;;;;;-142.21;100.00;66915.31;5019371;28;1295;-85
2021/12/16 09:58:00;;;;;;;;;;;;;;;-142.21;100.00;66915.31;5019280;28;1296;-86
2021/12/16 10:00:26;;;;;;;;;;;;;;;-142.21;100.00;66915.31;5019318;28;1898;-86
2021/12/16 10:02:52;;;;;;;;;;;;;;;-142.21;100.00;66915.31;5020446;28;864;-86
2021/12/16 10:05:19;;;;;;;;;;;;;;;-142.21;100.00;66915.31;5018589;28;1204;-86
2021/12/16 10:07:44;;;;;;;;;;;;;;;-142.21;100.00;66915.31;5018906;28;1307;-86
2021/12/16 10:10:15;;;;;;;;;;;;;;;-142.21;100.00;66915.31;5018297;28;1347;-86
2021/12/16 10:12:43;;;;;;;;;;;;;;;-142.21;100.00;66915.31;5018509;28;1255;-86
2021/12/16 10:17:54;;;;;;;;;;;;;;;-142.21;100.00;66915.31;5020031;28;640;-86
2021/12/16 10:20:24;;;;;;;;;;;;;;;-142.21;100.00;66915.31;5018558;28;1902;-86
2021/12/16 10:22:51;;;;;;;;;;;;;;;-142.21;100.00;66915.31;5018109;28;1200;-86
2021/12/16 10:25:16;;;;;;;;;;;;;;;-142.21;100.00;66915.31;5018440;28;1323;-86
2021/12/16 10:27:52;;;;;;;;;;;;;;;-142.21;100.00;66915.31;5034068;28;1640;-86
2021/12/16 10:30:17;;;;;;;;;;;;;;;-142.21;100.00;66915.31;5014603;28;1181;-86
2021/12/16 10:32:44;;;;;;;;;;;;;;;-142.21;100.00;66915.31;5019534;28;920;-86
2021/12/16 10:35:12;;;;;;;;;;;;;;;-142.21;100.00;66915.31;5017685;28;1450;-86
2021/12/16 10:37:41;;;;;;;;;;;;;;;-142.21;100.00;66915.31;5017695;28;1352;-86
2021/12/16 10:40:25;;;;;;;;;;;;;;;-142.21;100.00;66915.31;5018224;28;1894;-86
2021/12/16 10:42:51;;;;;;;;;;;;;;;-142.21;100.00;66915.31;5018265;28;1211;-86
2021/12/16 10:45:27;;;;;;;;;;;;;;;-142.21;100.00;66915.31;5018048;28;1452;-86
2021/12/16 10:48:13;;;;;;;;;;;;;;;-142.21;100.00;66915.31;5018214;28;1240;-86
2021/12/16 10:50:53;;;;;;;;;;;;;;;-142.21;100.00;66915.31;5025604;28;1442;-86
2021/12/16 10:53:37;;;;;;;;;;;;;;;-142.21;100.00;66915.31;5017233;28;1215;-86
2021/12/16 10:56:03;;;;;;;;;;;;;;;-142.21;100.00;66915.31;5016737;28;1274;-86
2021/12/16 10:58:47;;;;;;;;;;;;;;;-142.21;100.00;66915.31;5017654;28;805;-86
2021/12/16 11:01:47;;;;;;;;;;;;;;;-142.21;100.00;66915.31;5017293;28;1890;-86
2021/12/16 11:04:19;;;;;;;;;;;;;;;-142.21;100.00;66915.31;4995682;28;1250;-86
2021/12/16 11:06:46;;;;;;;;;;;;;;;-142.21;100.00;66915.31;5010525;28;1395;-86
2021/12/16 11:09:27;;;;;;;;;;;;;;;-142.21;100.00;66915.31;5017472;28;1288;-86
2021/12/16 11:12:04;;;;;;;;;;;;;;;-142.21;100.00;66915.31;5019064;28;853;-86
2021/12/16 11:14:29;;;;;;;;;;;;;;;-142.21;100.00;66915.31;5018146;28;1402;-86
2021/12/16 11:16:56;;;;;;;;;;;;;;;-142.21;100.00;66915.31;5017778;28;1266;-86
2021/12/16 11:19:42;;;;;;;;;;;;;;;-142.21;100.00;66915.31;5017241;28;1898;-85
2021/12/16 11:22:08;;;;;;;;;;;;;;;-142.21;100.00;66915.31;5016876;28;1221;-86
2021/12/16 11:24:34;;;;;;;;;;;;;;;-142.21;100.00;66915.31;5017302;28;1224;-86
2021/12/16 11:26:59;;;;;;;;;;;;;;;-142.21;100.00;66915.31;5016350;28;1225;-86
2021/12/16 11:29:29;;;;;;;;;;;;;;;-142.21;100.00;66915.31;5016440;28;1283;-85
2021/12/16 11:31:56;;;;;;;;;;;;;;;-142.21;100.00;66915.31;5016729;28;1222;-86
2021/12/16 11:34:21;;;;;;;;;;;;;;;-142.21;100.00;66915.31;5016979;28;1408;-86
2021/12/16 11:36:53;;;;;;;;;;;;;;;-142.21;100.00;66915.31;5016934;28;1360;-86
2021/12/16 11:39:18;;;;;;;;;;;;;;;-142.21;100.00;66915.31;5016682;28;1961;-86
2021/12/16 11:41:49;;;;;;;;;;;;;;;-142.21;100.00;66915.31;5016767;28;1045;-86
2021/12/16 11:44:15;;;;;;;;;;;;;;;-142.21;100.00;66915.31;5017054;28;1293;-86
2021/12/16 11:46:42;;;;;;;;;;;;;;;-142.21;100.00;66915.31;5018146;28;1188;-86
2021/12/16 11:49:07;;;;;;;;;;;;;;;-142.21;100.00;66915.31;5016742;28;1439;-86
2021/12/16 11:51:36;;;;;;;;;;;;;;;-142.21;100.00;66915.31;5016894;28;1351;-86
2021/12/16 11:54:03;;;;;;;;;;;;;;;-142.21;100.00;66915.31;5017401;28;821;-86
2021/12/16 11:56:41;;;;;;;;;;;;;;;-142.21;100.00;66915.31;5016439;28;1364;-86
2021/12/16 11:59:07;;;;;;;;;;;;;;;-142.21;100.00;66915.31;5016094;28;1898;-86
2021/12/16 12:01:32;;;;;;;;;;;;;;;-142.21;100.00;66915.31;5015894;28;1298;-86
2021/12/16 12:04:02;;;;;;;;;;;;;;;-142.21;100.00;66915.31;5032534;28;1331;-86
2021/12/16 12:06:28;;;;;;;;;;;;;;;-142.21;100.00;66915.31;5014479;28;1349;-86
2021/12/16 12:08:54;;;;;;;;;;;;;;;-142.21;100.00;66915.31;5012943;28;1229;-86
2021/12/16 12:11:22;;;;;;;;;;;;;;;-142.21;100.00;66915.31;5014341;28;849;-86
2021/12/16 12:13:49;;;;;;;;;;;;;;;-142.21;100.00;66915.31;5013186;28;1239;-86
2021/12/16 12:16:17;;;;;;;;;;;;;;;-142.21;100.00;66915.31;5014370;28;1241;-86
2021/12/16 12:18:47;;;;;;;;;;;;;;;-142.21;100.00;66915.31;5013748;28;1000;-87
2021/12/16 12:21:15;;;;;;;;;;;;;;;-142.21;100.00;66915.31;5012892;28;1886;-86
2021/12/16 12:23:42;;;;;;;;;;;;;;;-142.21;100.00;66915.31;5012879;28;1351;-86
2021/12/16 12:26:09;;;;;;;;;;;;;;;-142.21;100.00;66915.31;5010243;28;1276;-86
2021/12/16 12:28:34;;;;;;;;;;;;;;;-142.21;100.00;66915.31;5008895;28;1511;-86
2021/12/16 12:30:59;;;;;;;;;;;;;;;-142.21;100.00;66915.31;5013073;28;1377;-86
2021/12/16 12:33:24;;;;;;;;;;;;;;;-142.21;100.00;66915.31;5014400;28;1078;-86
2021/12/16 12:35:49;;;;;;;;;;;;;;;-142.21;100.00;66915.31;5012812;28;1308;-86
2021/12/16 12:38:15;;;;;;;;;;;;;;;-142.21;100.00;66915.31;5012735;28;1348;-86
2021/12/16 12:40:40;;;;;;;;;;;;;;;-142.21;100.00;66915.31;5012821;28;1902;-86
2021/12/16 12:43:06;;;;;;;;;;;;;;;-142.21;100.00;66915.31;5012525;28;1428;-86
2021/12/16 12:45:36;;;;;;;;;;;;;;;-142.21;100.00;66915.31;5014102;28;1197;-86
2021/12/16 12:48:03;;;;;;;;;;;;;;;-142.21;100.00;66915.31;5012835;28;1078;-86
2021/12/16 12:50:34;;;;;;;;;;;;;;;-142.21;100.00;66915.31;5012745;28;1176;-86
2021/12/16 12:53:10;;;;;;;;;;;;;;;-142.21;100.00;66915.31;5012586;28;1379;-86
2021/12/16 12:55:36;;;;;;;;;;;;;;;-142.21;100.00;66915.31;5014180;28;1342;-86
2021/12/16 12:58:05;;;;;;;;;;;;;;;-142.21;100.00;66915.31;5012690;28;1204;-86
2021/12/16 13:00:32;;;;;;;;;;;;;;;-142.21;100.00;66915.31;5012649;28;1882;-86
2021/12/16 13:03:00;;;;;;;;;;;;;;;-142.21;100.00;66915.31;5012552;28;1265;-86
2021/12/16 13:05:26;;;;;;;;;;;;;;;-142.21;100.00;66915.31;5012482;28;1286;-86
2021/12/16 13:08:19;;;;;;;;;;;;;;;-142.21;100.00;66915.31;5012394;28;1427;-86
2021/12/16 13:10:47;;;;;;;;;;;;;;;-142.21;100.00;66915.31;5012255;28;1248;-86
2021/12/16 13:16:10;;;;;;;;;;;;;;;-142.21;100.00;66915.31;5017868;28;1236;-86
2021/12/16 13:29:38;;;;;;;;;;;;;;;-142.21;100.00;66915.31;5017642;28;742;-86
2021/12/16 13:32:09;;;;;;;;;;;;;;;-142.21;100.00;66915.31;5016338;28;1236;-86
2021/12/16 13:35:34;;;;;;;;;;;;;;;-142.21;100.00;66915.31;5016416;28;1404;-86
2021/12/16 13:37:42;;;;;;;;;;;;;;;-142.21;100.00;66915.31;5009134;28;1204;-86
2021/12/16 13:40:14;;;;;;;;;;;;;;;-142.21;100.00;66915.31;5016069;28;1886;-86
2021/12/16 13:42:43;;;;;;;;;;;;;;;-142.21;100.00;66915.31;5032891;28;1176;-86
2021/12/16 13:45:17;;;;;;;;;;;;;;;-142.21;100.00;66915.31;5015955;28;1325;-86
2021/12/16 13:47:53;;;;;;;;;;;;;;;-142.21;100.00;66915.31;5017569;28;888;-86
2021/12/16 14:04:51;;;;;;;;;;;;;;;-142.21;100.00;66915.31;5016230;28;1623;-86
2021/12/16 14:09:52;;;;;;;;;;;;;;;-142.21;100.00;66915.31;5016651;28;1376;-86
2021/12/16 14:13:22;;;;;;;;;;;;;;;-142.21;100.00;66915.31;5032296;28;1374;-85
2021/12/16 14:15:21;;;;;;;;;;;;;;;-142.21;100.00;66915.31;5016996;28;1246;-85
2021/12/16 14:17:53;;;;;;;;;;;;;;;-142.21;100.00;66915.31;5016715;28;1274;-85
2021/12/16 14:23:09;;;;;;;;;;;;;;;-142.21;100.00;66915.31;5017650;28;1463;-86
2021/12/16 14:41:35;;;;;;;;;;;;;;;-142.21;100.00;66915.31;5017085;28;1894;-87
2021/12/16 14:49:35;;;;;;;;;;;;;;;-142.21;100.00;66915.31;5016481;28;912;-90
2021/12/16 14:52:01;;;;;;;;;;;;;;;-142.21;100.00;66915.31;5015235;28;1311;-87
2021/12/16 14:54:26;;;;;;;;;;;;;;;-142.21;100.00;66915.31;5015955;28;1215;-87
2021/12/16 14:56:57;;;;;;;;;;;;;;;-142.21;100.00;66915.31;5031119;28;1515;-88
2021/12/16 14:59:24;;;;;;;;;;;;;;;-142.21;100.00;66915.31;5015758;28;1894;-88
2021/12/16 15:01:52;;;;;;;;;;;;;;;-142.21;100.00;66915.31;5015943;28;1147;-86
2021/12/16 15:04:22;;;;;;;;;;;;;;;-142.21;100.00;66915.31;5016782;28;829;-87
2021/12/16 15:06:54;;;;;;;;;;;;;;;-142.21;100.00;66915.31;5015009;28;1442;-87
2021/12/16 15:09:28;;;;;;;;;;;;;;;-142.21;100.00;66915.31;5032312;28;1336;-87
2021/12/16 15:12:01;;;;;;;;;;;;;;;-142.21;100.00;66915.31;5015090;28;1245;-88
2021/12/16 15:17:21;;;;;;;;;;;;;;;-142.21;100.00;66915.31;5018152;28;1530;-86
2021/12/16 15:44:48;;;;;;;;;;;;;;;-142.21;100.00;66915.31;4996179;28;1282;-86
2021/12/16 15:47:13;;;;;;;;;;;;;;;-142.21;100.00;66915.31;4994886;28;1232;-86
2021/12/16 15:49:38;;;;;;;;;;;;;;;-142.21;100.00;66915.31;4994613;28;1185;-86
2021/12/16 15:52:03;;;;;;;;;;;;;;;-142.21;100.00;66915.31;4997155;28;1125;-86
2021/12/16 15:54:33;;;;;;;;;;;;;;;-142.21;100.00;66915.31;5027184;28;1340;-87
2021/12/16 15:56:58;;;;;;;;;;;;;;;-142.21;100.00;66915.31;5014409;28;1257;-88
2021/12/16 15:59:28;;;;;;;;;;;;;;;-142.21;100.00;66915.31;5015026;28;1898;-87
2021/12/16 16:01:54;;;;;;;;;;;;;;;-142.21;100.00;66915.31;5014333;28;1417;-87
2021/12/16 16:04:21;;;;;;;;;;;;;;;-142.21;100.00;66915.31;5011180;28;1483;-87
2021/12/16 16:06:48;;;;;;;;;;;;;;;-142.21;100.00;66915.31;5032054;28;1349;-86
2021/12/16 16:09:15;;;;;;;;;;;;;;;-142.21;100.00;66915.31;5015287;28;1156;-86